sensor_id;sensor_type;location;lat;lon;timestamp;P1;durP1;ratioP1;P2;durP2;ratioP2
75798;SDS011;70933;44.692;37.776;2024-01-27T00:00:35;1.50;;;0.47;;
75798;SDS011;70933;44.692;37.776;2024-01-27T00:01:37;1.90;;;0.45;;
75798;SDS011;70933;44.692;37.776;2024-01-27T00:02:38;1.58;;;0.65;;
75798;SDS011;70933;44.692;37.776;2024-01-27T00:03:40;1.50;;;0.38;;
75798;SDS011;70933;44.692;37.776;2024-01-27T00:04:42;1.85;;;0.60;;
75798;SDS011;70933;44.692;37.776;2024-01-27T00:05:44;1.77;;;0.57;;
75798;SDS011;70933;44.692;37.776;2024-01-27T00:06:46;2.20;;;2.00;;
75798;SDS011;70933;44.692;37.776;2024-01-27T00:07:47;1.83;;;0.40;;
75798;SDS011;70933;44.692;37.776;2024-01-27T00:08:49;1.80;;;0.50;;
75798;SDS011;70933;44.692;37.776;2024-01-27T00:09:51;1.55;;;0.30;;
75798;SDS011;70933;44.692;37.776;2024-01-27T00:10:53;2.00;;;1.67;;
75798;SDS011;70933;44.692;37.776;2024-01-27T00:11:55;2.80;;;2.22;;
75798;SDS011;70933;44.692;37.776;2024-01-27T00:12:56;2.35;;;1.90;;
75798;SDS011;70933;44.692;37.776;2024-01-27T00:13:59;2.33;;;2.00;;
75798;SDS011;70933;44.692;37.776;2024-01-27T00:15:01;2.03;;;0.60;;
75798;SDS011;70933;44.692;37.776;2024-01-27T00:16:06;1.92;;;0.68;;
75798;SDS011;70933;44.692;37.776;2024-01-27T00:17:08;1.55;;;0.73;;
75798;SDS011;70933;44.692;37.776;2024-01-27T00:18:10;1.90;;;0.63;;
75798;SDS011;70933;44.692;37.776;2024-01-27T00:19:12;1.70;;;0.60;;
75798;SDS011;70933;44.692;37.776;2024-01-27T00:20:14;2.20;;;0.52;;
75798;SDS011;70933;44.692;37.776;2024-01-27T00:21:15;1.95;;;0.77;;
75798;SDS011;70933;44.692;37.776;2024-01-27T00:22:17;1.80;;;0.35;;
75798;SDS011;70933;44.692;37.776;2024-01-27T00:23:19;2.25;;;2.05;;
75798;SDS011;70933;44.692;37.776;2024-01-27T00:24:21;2.13;;;1.92;;
75798;SDS011;70933;44.692;37.776;2024-01-27T00:25:23;1.70;;;0.47;;
75798;SDS011;70933;44.692;37.776;2024-01-27T00:26:25;2.03;;;0.95;;
75798;SDS011;70933;44.692;37.776;2024-01-27T00:27:27;1.73;;;0.40;;
75798;SDS011;70933;44.692;37.776;2024-01-27T00:28:29;1.40;;;0.52;;
75798;SDS011;70933;44.692;37.776;2024-01-27T00:29:31;1.58;;;0.50;;
75798;SDS011;70933;44.692;37.776;2024-01-27T00:30:32;1.90;;;0.50;;
75798;SDS011;70933;44.692;37.776;2024-01-27T00:31:34;2.28;;;0.63;;
75798;SDS011;70933;44.692;37.776;2024-01-27T00:32:36;2.33;;;1.85;;
75798;SDS011;70933;44.692;37.776;2024-01-27T00:33:38;2.55;;;0.57;;
75798;SDS011;70933;44.692;37.776;2024-01-27T00:34:40;2.72;;;1.95;;
75798;SDS011;70933;44.692;37.776;2024-01-27T00:35:42;1.80;;;0.55;;
75798;SDS011;70933;44.692;37.776;2024-01-27T00:36:44;1.52;;;0.80;;
75798;SDS011;70933;44.692;37.776;2024-01-27T00:37:49;2.42;;;2.22;;
75798;SDS011;70933;44.692;37.776;2024-01-27T00:38:51;1.90;;;1.58;;
75798;SDS011;70933;44.692;37.776;2024-01-27T00:39:53;1.58;;;0.50;;
75798;SDS011;70933;44.692;37.776;2024-01-27T00:40:55;1.40;;;0.38;;
75798;SDS011;70933;44.692;37.776;2024-01-27T00:41:57;2.42;;;1.05;;
75798;SDS011;70933;44.692;37.776;2024-01-27T00:42:59;1.85;;;0.43;;
75798;SDS011;70933;44.692;37.776;2024-01-27T00:44:03;1.50;;;0.50;;
75798;SDS011;70933;44.692;37.776;2024-01-27T00:45:05;1.65;;;0.47;;
75798;SDS011;70933;44.692;37.776;2024-01-27T00:46:07;2.03;;;0.40;;
75798;SDS011;70933;44.692;37.776;2024-01-27T00:47:08;1.90;;;1.65;;
75798;SDS011;70933;44.692;37.776;2024-01-27T00:48:10;1.92;;;1.65;;
75798;SDS011;70933;44.692;37.776;2024-01-27T00:49:11;1.95;;;1.85;;
75798;SDS011;70933;44.692;37.776;2024-01-27T00:50:13;1.50;;;0.35;;
75798;SDS011;70933;44.692;37.776;2024-01-27T00:51:15;1.65;;;0.57;;
75798;SDS011;70933;44.692;37.776;2024-01-27T00:52:16;1.88;;;0.57;;
75798;SDS011;70933;44.692;37.776;2024-01-27T00:53:18;1.90;;;0.70;;
75798;SDS011;70933;44.692;37.776;2024-01-27T00:54:19;2.40;;;0.75;;
75798;SDS011;70933;44.692;37.776;2024-01-27T00:55:21;1.83;;;0.47;;
75798;SDS011;70933;44.692;37.776;2024-01-27T00:56:23;1.38;;;0.50;;
75798;SDS011;70933;44.692;37.776;2024-01-27T00:57:24;1.38;;;0.45;;
75798;SDS011;70933;44.692;37.776;2024-01-27T00:58:26;1.40;;;0.50;;
75798;SDS011;70933;44.692;37.776;2024-01-27T00:59:28;2.33;;;0.57;;
75798;SDS011;70933;44.692;37.776;2024-01-27T01:00:29;2.05;;;1.25;;
75798;SDS011;70933;44.692;37.776;2024-01-27T01:01:31;2.17;;;0.60;;
75798;SDS011;70933;44.692;37.776;2024-01-27T01:02:32;2.45;;;1.38;;
75798;SDS011;70933;44.692;37.776;2024-01-27T01:03:34;1.65;;;0.40;;
75798;SDS011;70933;44.692;37.776;2024-01-27T01:04:35;1.45;;;1.35;;
75798;SDS011;70933;44.692;37.776;2024-01-27T01:05:38;2.35;;;0.55;;
75798;SDS011;70933;44.692;37.776;2024-01-27T01:06:39;2.13;;;1.92;;
75798;SDS011;70933;44.692;37.776;2024-01-27T01:07:41;1.40;;;0.40;;
75798;SDS011;70933;44.692;37.776;2024-01-27T01:08:43;1.40;;;0.40;;
75798;SDS011;70933;44.692;37.776;2024-01-27T01:09:45;1.90;;;0.65;;
75798;SDS011;70933;44.692;37.776;2024-01-27T01:10:47;1.40;;;0.40;;
75798;SDS011;70933;44.692;37.776;2024-01-27T01:11:48;1.80;;;0.47;;
75798;SDS011;70933;44.692;37.776;2024-01-27T01:12:50;1.77;;;0.47;;
75798;SDS011;70933;44.692;37.776;2024-01-27T01:13:52;1.60;;;0.40;;
75798;SDS011;70933;44.692;37.776;2024-01-27T01:14:53;1.52;;;0.50;;
75798;SDS011;70933;44.692;37.776;2024-01-27T01:15:55;3.03;;;1.92;;
75798;SDS011;70933;44.692;37.776;2024-01-27T01:16:57;1.92;;;1.52;;
75798;SDS011;70933;44.692;37.776;2024-01-27T01:17:59;1.63;;;0.32;;
75798;SDS011;70933;44.692;37.776;2024-01-27T01:19:00;1.42;;;0.40;;
75798;SDS011;70933;44.692;37.776;2024-01-27T01:20:02;1.60;;;0.55;;
75798;SDS011;70933;44.692;37.776;2024-01-27T01:21:04;1.48;;;0.35;;
75798;SDS011;70933;44.692;37.776;2024-01-27T01:22:05;1.77;;;0.57;;
75798;SDS011;70933;44.692;37.776;2024-01-27T01:23:08;2.13;;;0.45;;
75798;SDS011;70933;44.692;37.776;2024-01-27T01:24:09;1.70;;;0.50;;
75798;SDS011;70933;44.692;37.776;2024-01-27T01:25:11;1.05;;;0.32;;
75798;SDS011;70933;44.692;37.776;2024-01-27T01:26:12;1.75;;;0.40;;
75798;SDS011;70933;44.692;37.776;2024-01-27T01:27:14;1.48;;;0.50;;
75798;SDS011;70933;44.692;37.776;2024-01-27T01:28:20;1.50;;;0.30;;
75798;SDS011;70933;44.692;37.776;2024-01-27T01:29:21;1.20;;;0.10;;
75798;SDS011;70933;44.692;37.776;2024-01-27T01:30:23;1.17;;;0.17;;
75798;SDS011;70933;44.692;37.776;2024-01-27T01:31:24;1.30;;;0.35;;
75798;SDS011;70933;44.692;37.776;2024-01-27T01:32:26;2.20;;;0.50;;
75798;SDS011;70933;44.692;37.776;2024-01-27T01:33:27;1.45;;;0.38;;
75798;SDS011;70933;44.692;37.776;2024-01-27T01:34:29;1.88;;;0.45;;
75798;SDS011;70933;44.692;37.776;2024-01-27T01:35:32;1.27;;;0.52;;
75798;SDS011;70933;44.692;37.776;2024-01-27T01:36:34;1.40;;;0.60;;
75798;SDS011;70933;44.692;37.776;2024-01-27T01:37:36;1.90;;;1.65;;
75798;SDS011;70933;44.692;37.776;2024-01-27T01:38:37;1.20;;;0.50;;
75798;SDS011;70933;44.692;37.776;2024-01-27T01:39:39;1.48;;;0.35;;
75798;SDS011;70933;44.692;37.776;2024-01-27T01:40:40;1.65;;;0.50;;
75798;SDS011;70933;44.692;37.776;2024-01-27T01:41:42;1.60;;;0.52;;
75798;SDS011;70933;44.692;37.776;2024-01-27T01:42:49;1.42;;;0.50;;
75798;SDS011;70933;44.692;37.776;2024-01-27T01:43:52;1.63;;;1.38;;
75798;SDS011;70933;44.692;37.776;2024-01-27T01:44:53;1.33;;;0.20;;
75798;SDS011;70933;44.692;37.776;2024-01-27T01:45:55;1.67;;;0.40;;
75798;SDS011;70933;44.692;37.776;2024-01-27T01:46:57;1.10;;;0.30;;
75798;SDS011;70933;44.692;37.776;2024-01-27T01:47:59;1.67;;;0.40;;
75798;SDS011;70933;44.692;37.776;2024-01-27T01:49:01;1.67;;;0.40;;
75798;SDS011;70933;44.692;37.776;2024-01-27T01:50:03;1.30;;;0.40;;
75798;SDS011;70933;44.692;37.776;2024-01-27T01:51:07;1.40;;;0.43;;
75798;SDS011;70933;44.692;37.776;2024-01-27T01:52:10;1.70;;;0.20;;
75798;SDS011;70933;44.692;37.776;2024-01-27T01:53:12;1.15;;;0.35;;
75798;SDS011;70933;44.692;37.776;2024-01-27T01:54:14;1.95;;;0.38;;
75798;SDS011;70933;44.692;37.776;2024-01-27T01:55:16;1.40;;;0.30;;
75798;SDS011;70933;44.692;37.776;2024-01-27T01:56:18;2.08;;;1.73;;
75798;SDS011;70933;44.692;37.776;2024-01-27T01:57:21;1.63;;;0.10;;
75798;SDS011;70933;44.692;37.776;2024-01-27T01:58:22;1.10;;;0.30;;
75798;SDS011;70933;44.692;37.776;2024-01-27T01:59:24;1.13;;;0.17;;
75798;SDS011;70933;44.692;37.776;2024-01-27T02:00:26;1.60;;;0.50;;
75798;SDS011;70933;44.692;37.776;2024-01-27T02:01:28;2.17;;;1.55;;
75798;SDS011;70933;44.692;37.776;2024-01-27T02:02:29;1.30;;;0.40;;
75798;SDS011;70933;44.692;37.776;2024-01-27T02:03:31;1.38;;;0.82;;
75798;SDS011;70933;44.692;37.776;2024-01-27T02:04:42;1.52;;;0.57;;
75798;SDS011;70933;44.692;37.776;2024-01-27T02:05:44;2.05;;;0.30;;
75798;SDS011;70933;44.692;37.776;2024-01-27T02:06:46;1.63;;;0.45;;
75798;SDS011;70933;44.692;37.776;2024-01-27T02:07:48;1.35;;;0.30;;
75798;SDS011;70933;44.692;37.776;2024-01-27T02:08:50;1.33;;;1.23;;
75798;SDS011;70933;44.692;37.776;2024-01-27T02:09:52;1.35;;;0.40;;
75798;SDS011;70933;44.692;37.776;2024-01-27T02:10:53;1.27;;;0.43;;
75798;SDS011;70933;44.692;37.776;2024-01-27T02:11:55;1.17;;;0.22;;
75798;SDS011;70933;44.692;37.776;2024-01-27T02:12:57;1.20;;;0.30;;
75798;SDS011;70933;44.692;37.776;2024-01-27T02:13:59;1.20;;;0.35;;
75798;SDS011;70933;44.692;37.776;2024-01-27T02:15:00;1.30;;;0.30;;
75798;SDS011;70933;44.692;37.776;2024-01-27T02:16:06;1.80;;;1.30;;
75798;SDS011;70933;44.692;37.776;2024-01-27T02:17:08;0.93;;;0.20;;
75798;SDS011;70933;44.692;37.776;2024-01-27T02:18:09;1.20;;;0.40;;
75798;SDS011;70933;44.692;37.776;2024-01-27T02:19:11;1.10;;;0.20;;
75798;SDS011;70933;44.692;37.776;2024-01-27T02:20:13;0.90;;;0.30;;
75798;SDS011;70933;44.692;37.776;2024-01-27T02:21:14;1.52;;;0.30;;
75798;SDS011;70933;44.692;37.776;2024-01-27T02:22:16;1.25;;;0.50;;
75798;SDS011;70933;44.692;37.776;2024-01-27T02:23:17;1.52;;;0.28;;
75798;SDS011;70933;44.692;37.776;2024-01-27T02:24:19;1.33;;;0.32;;
75798;SDS011;70933;44.692;37.776;2024-01-27T02:25:21;1.20;;;0.35;;
75798;SDS011;70933;44.692;37.776;2024-01-27T02:26:22;1.45;;;0.28;;
75798;SDS011;70933;44.692;37.776;2024-01-27T02:27:24;1.38;;;0.20;;
75798;SDS011;70933;44.692;37.776;2024-01-27T02:28:25;1.08;;;0.20;;
75798;SDS011;70933;44.692;37.776;2024-01-27T02:29:27;1.42;;;0.30;;
75798;SDS011;70933;44.692;37.776;2024-01-27T02:30:29;1.10;;;0.15;;
75798;SDS011;70933;44.692;37.776;2024-01-27T02:31:30;0.93;;;0.20;;
75798;SDS011;70933;44.692;37.776;2024-01-27T02:32:32;1.73;;;0.30;;
75798;SDS011;70933;44.692;37.776;2024-01-27T02:33:33;1.38;;;1.02;;
75798;SDS011;70933;44.692;37.776;2024-01-27T02:34:35;1.25;;;0.20;;
75798;SDS011;70933;44.692;37.776;2024-01-27T02:35:37;1.05;;;0.40;;
75798;SDS011;70933;44.692;37.776;2024-01-27T02:36:38;1.92;;;0.47;;
75798;SDS011;70933;44.692;37.776;2024-01-27T02:37:41;1.45;;;0.15;;
75798;SDS011;70933;44.692;37.776;2024-01-27T02:38:43;1.00;;;0.20;;
75798;SDS011;70933;44.692;37.776;2024-01-27T02:39:44;1.67;;;0.25;;
75798;SDS011;70933;44.692;37.776;2024-01-27T02:40:46;1.35;;;0.22;;
75798;SDS011;70933;44.692;37.776;2024-01-27T02:41:48;1.05;;;0.10;;
75798;SDS011;70933;44.692;37.776;2024-01-27T02:42:50;1.38;;;0.30;;
75798;SDS011;70933;44.692;37.776;2024-01-27T02:43:51;1.10;;;0.17;;
75798;SDS011;70933;44.692;37.776;2024-01-27T02:44:53;1.48;;;0.20;;
75798;SDS011;70933;44.692;37.776;2024-01-27T02:45:55;0.82;;;0.10;;
75798;SDS011;70933;44.692;37.776;2024-01-27T02:46:57;1.10;;;0.22;;
75798;SDS011;70933;44.692;37.776;2024-01-27T02:47:58;1.40;;;0.30;;
75798;SDS011;70933;44.692;37.776;2024-01-27T02:49:00;0.90;;;0.15;;
75798;SDS011;70933;44.692;37.776;2024-01-27T02:50:02;1.13;;;0.20;;
75798;SDS011;70933;44.692;37.776;2024-01-27T02:51:05;1.35;;;0.20;;
75798;SDS011;70933;44.692;37.776;2024-01-27T02:52:06;1.52;;;0.30;;
75798;SDS011;70933;44.692;37.776;2024-01-27T02:53:08;0.93;;;0.10;;
75798;SDS011;70933;44.692;37.776;2024-01-27T02:54:10;1.20;;;0.65;;
75798;SDS011;70933;44.692;37.776;2024-01-27T02:55:12;1.27;;;0.20;;
75798;SDS011;70933;44.692;37.776;2024-01-27T02:56:15;1.00;;;0.10;;
75798;SDS011;70933;44.692;37.776;2024-01-27T02:57:17;1.05;;;0.20;;
75798;SDS011;70933;44.692;37.776;2024-01-27T02:58:20;1.83;;;1.25;;
75798;SDS011;70933;44.692;37.776;2024-01-27T02:59:22;1.30;;;0.20;;
75798;SDS011;70933;44.692;37.776;2024-01-27T03:00:24;1.05;;;0.20;;
75798;SDS011;70933;44.692;37.776;2024-01-27T03:01:26;0.95;;;0.15;;
75798;SDS011;70933;44.692;37.776;2024-01-27T03:02:27;1.02;;;0.10;;
75798;SDS011;70933;44.692;37.776;2024-01-27T03:03:29;1.00;;;0.30;;
75798;SDS011;70933;44.692;37.776;2024-01-27T03:04:31;0.73;;;0.13;;
75798;SDS011;70933;44.692;37.776;2024-01-27T03:05:33;1.35;;;0.10;;
75798;SDS011;70933;44.692;37.776;2024-01-27T03:06:35;1.23;;;0.40;;
75798;SDS011;70933;44.692;37.776;2024-01-27T03:07:37;1.30;;;0.43;;
75798;SDS011;70933;44.692;37.776;2024-01-27T03:08:38;1.70;;;1.40;;
75798;SDS011;70933;44.692;37.776;2024-01-27T03:09:40;1.15;;;0.30;;
75798;SDS011;70933;44.692;37.776;2024-01-27T03:10:42;1.08;;;0.22;;
75798;SDS011;70933;44.692;37.776;2024-01-27T03:11:44;1.02;;;0.20;;
75798;SDS011;70933;44.692;37.776;2024-01-27T03:12:46;1.55;;;1.30;;
75798;SDS011;70933;44.692;37.776;2024-01-27T03:13:48;0.95;;;0.25;;
75798;SDS011;70933;44.692;37.776;2024-01-27T03:14:49;0.70;;;0.20;;
75798;SDS011;70933;44.692;37.776;2024-01-27T03:15:52;1.00;;;0.30;;
75798;SDS011;70933;44.692;37.776;2024-01-27T03:16:54;1.42;;;1.33;;
75798;SDS011;70933;44.692;37.776;2024-01-27T03:17:56;1.88;;;1.77;;
75798;SDS011;70933;44.692;37.776;2024-01-27T03:18:58;1.48;;;1.38;;
75798;SDS011;70933;44.692;37.776;2024-01-27T03:20:00;1.75;;;1.52;;
75798;SDS011;70933;44.692;37.776;2024-01-27T03:21:02;1.58;;;1.25;;
75798;SDS011;70933;44.692;37.776;2024-01-27T03:22:04;1.35;;;0.85;;
75798;SDS011;70933;44.692;37.776;2024-01-27T03:23:06;1.15;;;0.30;;
75798;SDS011;70933;44.692;37.776;2024-01-27T03:24:09;1.67;;;0.47;;
75798;SDS011;70933;44.692;37.776;2024-01-27T03:25:10;1.55;;;1.45;;
75798;SDS011;70933;44.692;37.776;2024-01-27T03:26:13;1.30;;;0.10;;
75798;SDS011;70933;44.692;37.776;2024-01-27T03:27:14;1.20;;;0.32;;
75798;SDS011;70933;44.692;37.776;2024-01-27T03:28:16;1.02;;;0.10;;
75798;SDS011;70933;44.692;37.776;2024-01-27T03:29:18;1.20;;;0.20;;
75798;SDS011;70933;44.692;37.776;2024-01-27T03:30:20;1.00;;;0.10;;
75798;SDS011;70933;44.692;37.776;2024-01-27T03:31:21;1.00;;;0.10;;
75798;SDS011;70933;44.692;37.776;2024-01-27T03:32:23;1.50;;;1.40;;
75798;SDS011;70933;44.692;37.776;2024-01-27T03:33:25;0.90;;;0.40;;
75798;SDS011;70933;44.692;37.776;2024-01-27T03:34:30;0.90;;;0.10;;
75798;SDS011;70933;44.692;37.776;2024-01-27T03:35:32;1.70;;;0.30;;
75798;SDS011;70933;44.692;37.776;2024-01-27T03:36:34;0.80;;;0.20;;
75798;SDS011;70933;44.692;37.776;2024-01-27T03:37:35;1.38;;;0.25;;
75798;SDS011;70933;44.692;37.776;2024-01-27T03:38:38;1.38;;;0.10;;
75798;SDS011;70933;44.692;37.776;2024-01-27T03:39:43;1.23;;;0.22;;
75798;SDS011;70933;44.692;37.776;2024-01-27T03:40:45;0.85;;;0.10;;
75798;SDS011;70933;44.692;37.776;2024-01-27T03:41:47;1.40;;;0.60;;
75798;SDS011;70933;44.692;37.776;2024-01-27T03:42:49;0.95;;;0.10;;
75798;SDS011;70933;44.692;37.776;2024-01-27T03:43:51;1.10;;;0.20;;
75798;SDS011;70933;44.692;37.776;2024-01-27T03:44:53;1.40;;;0.20;;
75798;SDS011;70933;44.692;37.776;2024-01-27T03:45:54;1.15;;;0.20;;
75798;SDS011;70933;44.692;37.776;2024-01-27T03:46:56;0.88;;;0.38;;
75798;SDS011;70933;44.692;37.776;2024-01-27T03:47:58;0.90;;;0.30;;
75798;SDS011;70933;44.692;37.776;2024-01-27T03:49:00;1.05;;;0.20;;
75798;SDS011;70933;44.692;37.776;2024-01-27T03:50:07;0.90;;;0.10;;
75798;SDS011;70933;44.692;37.776;2024-01-27T03:51:09;1.10;;;0.20;;
75798;SDS011;70933;44.692;37.776;2024-01-27T03:52:11;0.93;;;0.13;;
75798;SDS011;70933;44.692;37.776;2024-01-27T03:53:13;3.08;;;0.38;;
75798;SDS011;70933;44.692;37.776;2024-01-27T03:54:15;1.30;;;0.30;;
75798;SDS011;70933;44.692;37.776;2024-01-27T03:55:17;1.73;;;1.63;;
75798;SDS011;70933;44.692;37.776;2024-01-27T03:56:18;1.90;;;1.80;;
75798;SDS011;70933;44.692;37.776;2024-01-27T03:57:20;1.75;;;1.15;;
75798;SDS011;70933;44.692;37.776;2024-01-27T03:58:22;1.23;;;0.30;;
75798;SDS011;70933;44.692;37.776;2024-01-27T03:59:24;1.15;;;0.20;;
75798;SDS011;70933;44.692;37.776;2024-01-27T04:00:25;1.20;;;0.10;;
75798;SDS011;70933;44.692;37.776;2024-01-27T04:01:29;1.02;;;0.20;;
75798;SDS011;70933;44.692;37.776;2024-01-27T04:02:30;1.00;;;0.20;;
75798;SDS011;70933;44.692;37.776;2024-01-27T04:03:32;0.82;;;0.15;;
75798;SDS011;70933;44.692;37.776;2024-01-27T04:04:34;1.40;;;0.30;;
75798;SDS011;70933;44.692;37.776;2024-01-27T04:05:36;1.10;;;0.43;;
75798;SDS011;70933;44.692;37.776;2024-01-27T04:06:39;0.88;;;0.10;;
75798;SDS011;70933;44.692;37.776;2024-01-27T04:07:41;1.52;;;0.30;;
75798;SDS011;70933;44.692;37.776;2024-01-27T04:08:43;1.38;;;0.40;;
75798;SDS011;70933;44.692;37.776;2024-01-27T04:09:46;1.30;;;0.10;;
75798;SDS011;70933;44.692;37.776;2024-01-27T04:10:47;1.35;;;1.02;;
75798;SDS011;70933;44.692;37.776;2024-01-27T04:11:49;0.95;;;0.20;;
75798;SDS011;70933;44.692;37.776;2024-01-27T04:12:52;0.95;;;0.10;;
75798;SDS011;70933;44.692;37.776;2024-01-27T04:13:54;1.33;;;1.23;;
75798;SDS011;70933;44.692;37.776;2024-01-27T04:14:56;1.10;;;0.28;;
75798;SDS011;70933;44.692;37.776;2024-01-27T04:17:02;0.85;;;0.25;;
75798;SDS011;70933;44.692;37.776;2024-01-27T04:18:04;1.17;;;0.28;;
75798;SDS011;70933;44.692;37.776;2024-01-27T04:19:09;1.40;;;0.40;;
75798;SDS011;70933;44.692;37.776;2024-01-27T04:20:11;1.17;;;0.32;;
75798;SDS011;70933;44.692;37.776;2024-01-27T04:21:12;1.23;;;0.35;;
75798;SDS011;70933;44.692;37.776;2024-01-27T04:22:14;1.42;;;0.10;;
75798;SDS011;70933;44.692;37.776;2024-01-27T04:23:17;0.88;;;0.20;;
75798;SDS011;70933;44.692;37.776;2024-01-27T04:24:19;1.63;;;0.30;;
75798;SDS011;70933;44.692;37.776;2024-01-27T04:25:20;1.27;;;0.52;;
75798;SDS011;70933;44.692;37.776;2024-01-27T04:26:22;1.90;;;1.70;;
75798;SDS011;70933;44.692;37.776;2024-01-27T04:27:24;1.02;;;0.30;;
75798;SDS011;70933;44.692;37.776;2024-01-27T04:28:28;1.70;;;1.10;;
75798;SDS011;70933;44.692;37.776;2024-01-27T04:29:31;1.58;;;0.20;;
75798;SDS011;70933;44.692;37.776;2024-01-27T04:30:33;1.20;;;0.30;;
75798;SDS011;70933;44.692;37.776;2024-01-27T04:31:39;1.48;;;0.25;;
75798;SDS011;70933;44.692;37.776;2024-01-27T04:32:41;1.33;;;0.30;;
75798;SDS011;70933;44.692;37.776;2024-01-27T04:33:43;1.40;;;0.50;;
75798;SDS011;70933;44.692;37.776;2024-01-27T04:34:45;1.10;;;0.30;;
75798;SDS011;70933;44.692;37.776;2024-01-27T04:35:47;1.75;;;0.38;;
75798;SDS011;70933;44.692;37.776;2024-01-27T04:36:49;1.25;;;0.30;;
75798;SDS011;70933;44.692;37.776;2024-01-27T04:37:51;2.22;;;1.85;;
75798;SDS011;70933;44.692;37.776;2024-01-27T04:38:53;1.65;;;0.40;;
75798;SDS011;70933;44.692;37.776;2024-01-27T04:39:54;1.33;;;0.32;;
75798;SDS011;70933;44.692;37.776;2024-01-27T04:40:56;1.17;;;0.30;;
75798;SDS011;70933;44.692;37.776;2024-01-27T04:41:58;1.67;;;0.43;;
75798;SDS011;70933;44.692;37.776;2024-01-27T04:43:00;1.55;;;0.50;;
75798;SDS011;70933;44.692;37.776;2024-01-27T04:44:02;1.60;;;0.40;;
75798;SDS011;70933;44.692;37.776;2024-01-27T04:45:05;1.38;;;0.13;;
75798;SDS011;70933;44.692;37.776;2024-01-27T04:46:07;1.80;;;1.40;;
75798;SDS011;70933;44.692;37.776;2024-01-27T04:47:09;1.70;;;0.28;;
75798;SDS011;70933;44.692;37.776;2024-01-27T04:48:10;1.45;;;1.27;;
75798;SDS011;70933;44.692;37.776;2024-01-27T04:49:13;1.77;;;0.38;;
75798;SDS011;70933;44.692;37.776;2024-01-27T04:50:18;1.70;;;0.50;;
75798;SDS011;70933;44.692;37.776;2024-01-27T04:51:20;1.50;;;0.50;;
75798;SDS011;70933;44.692;37.776;2024-01-27T04:52:21;1.88;;;1.67;;
75798;SDS011;70933;44.692;37.776;2024-01-27T04:53:23;1.17;;;0.57;;
75798;SDS011;70933;44.692;37.776;2024-01-27T04:54:25;1.35;;;0.43;;
75798;SDS011;70933;44.692;37.776;2024-01-27T04:55:27;2.00;;;1.42;;
75798;SDS011;70933;44.692;37.776;2024-01-27T04:56:29;1.45;;;0.47;;
75798;SDS011;70933;44.692;37.776;2024-01-27T04:57:30;1.63;;;0.30;;
75798;SDS011;70933;44.692;37.776;2024-01-27T04:58:33;2.33;;;0.47;;
75798;SDS011;70933;44.692;37.776;2024-01-27T04:59:38;1.65;;;0.55;;
75798;SDS011;70933;44.692;37.776;2024-01-27T05:00:40;1.70;;;0.75;;
75798;SDS011;70933;44.692;37.776;2024-01-27T05:01:45;1.92;;;0.50;;
75798;SDS011;70933;44.692;37.776;2024-01-27T05:02:47;2.63;;;0.82;;
75798;SDS011;70933;44.692;37.776;2024-01-27T05:03:49;1.60;;;0.30;;
75798;SDS011;70933;44.692;37.776;2024-01-27T05:04:50;1.85;;;0.50;;
75798;SDS011;70933;44.692;37.776;2024-01-27T05:05:52;2.33;;;1.60;;
75798;SDS011;70933;44.692;37.776;2024-01-27T05:06:55;1.92;;;1.63;;
75798;SDS011;70933;44.692;37.776;2024-01-27T05:07:57;1.77;;;1.67;;
75798;SDS011;70933;44.692;37.776;2024-01-27T05:08:58;1.60;;;0.63;;
75798;SDS011;70933;44.692;37.776;2024-01-27T05:10:00;1.52;;;0.60;;
75798;SDS011;70933;44.692;37.776;2024-01-27T05:11:02;1.77;;;0.60;;
75798;SDS011;70933;44.692;37.776;2024-01-27T05:12:04;2.88;;;0.60;;
75798;SDS011;70933;44.692;37.776;2024-01-27T05:13:06;1.60;;;0.55;;
75798;SDS011;70933;44.692;37.776;2024-01-27T05:14:08;1.52;;;0.50;;
75798;SDS011;70933;44.692;37.776;2024-01-27T05:15:10;2.25;;;1.50;;
75798;SDS011;70933;44.692;37.776;2024-01-27T05:16:12;1.83;;;0.55;;
75798;SDS011;70933;44.692;37.776;2024-01-27T05:17:13;1.52;;;0.35;;
75798;SDS011;70933;44.692;37.776;2024-01-27T05:18:15;1.90;;;0.57;;
75798;SDS011;70933;44.692;37.776;2024-01-27T05:19:17;1.90;;;0.60;;
75798;SDS011;70933;44.692;37.776;2024-01-27T05:20:19;1.75;;;0.50;;
75798;SDS011;70933;44.692;37.776;2024-01-27T05:21:21;2.15;;;0.80;;
75798;SDS011;70933;44.692;37.776;2024-01-27T05:22:23;1.73;;;0.43;;
75798;SDS011;70933;44.692;37.776;2024-01-27T05:23:25;1.50;;;0.40;;
75798;SDS011;70933;44.692;37.776;2024-01-27T05:24:27;2.42;;;2.22;;
75798;SDS011;70933;44.692;37.776;2024-01-27T05:25:28;1.80;;;0.68;;
75798;SDS011;70933;44.692;37.776;2024-01-27T05:26:30;2.00;;;0.60;;
75798;SDS011;70933;44.692;37.776;2024-01-27T05:27:32;1.88;;;0.75;;
75798;SDS011;70933;44.692;37.776;2024-01-27T05:28:34;1.83;;;0.73;;
75798;SDS011;70933;44.692;37.776;2024-01-27T05:29:37;2.20;;;0.80;;
75798;SDS011;70933;44.692;37.776;2024-01-27T05:30:39;2.10;;;0.70;;
75798;SDS011;70933;44.692;37.776;2024-01-27T05:31:40;2.35;;;0.60;;
75798;SDS011;70933;44.692;37.776;2024-01-27T05:32:45;2.20;;;0.80;;
75798;SDS011;70933;44.692;37.776;2024-01-27T05:33:46;2.08;;;0.57;;
75798;SDS011;70933;44.692;37.776;2024-01-27T05:34:48;1.90;;;0.60;;
75798;SDS011;70933;44.692;37.776;2024-01-27T05:35:50;2.35;;;0.80;;
75798;SDS011;70933;44.692;37.776;2024-01-27T05:36:52;1.85;;;0.70;;
75798;SDS011;70933;44.692;37.776;2024-01-27T05:37:53;2.03;;;0.82;;
75798;SDS011;70933;44.692;37.776;2024-01-27T05:38:55;2.03;;;0.98;;
75798;SDS011;70933;44.692;37.776;2024-01-27T05:39:57;2.40;;;1.17;;
75798;SDS011;70933;44.692;37.776;2024-01-27T05:41:02;2.67;;;1.00;;
75798;SDS011;70933;44.692;37.776;2024-01-27T05:42:04;3.08;;;1.13;;
75798;SDS011;70933;44.692;37.776;2024-01-27T05:43:06;2.60;;;2.25;;
75798;SDS011;70933;44.692;37.776;2024-01-27T05:44:07;2.47;;;0.93;;
75798;SDS011;70933;44.692;37.776;2024-01-27T05:45:09;3.13;;;1.27;;
75798;SDS011;70933;44.692;37.776;2024-01-27T05:46:11;2.42;;;1.02;;
75798;SDS011;70933;44.692;37.776;2024-01-27T05:47:13;2.88;;;0.95;;
75798;SDS011;70933;44.692;37.776;2024-01-27T05:48:15;2.40;;;1.00;;
75798;SDS011;70933;44.692;37.776;2024-01-27T05:49:18;2.53;;;1.23;;
75798;SDS011;70933;44.692;37.776;2024-01-27T05:50:20;3.10;;;2.55;;
75798;SDS011;70933;44.692;37.776;2024-01-27T05:51:24;3.20;;;1.20;;
75798;SDS011;70933;44.692;37.776;2024-01-27T05:52:26;2.30;;;0.98;;
75798;SDS011;70933;44.692;37.776;2024-01-27T05:53:28;1.73;;;0.73;;
75798;SDS011;70933;44.692;37.776;2024-01-27T05:54:30;2.47;;;1.35;;
75798;SDS011;70933;44.692;37.776;2024-01-27T05:55:32;2.10;;;0.98;;
75798;SDS011;70933;44.692;37.776;2024-01-27T05:56:35;2.22;;;0.93;;
75798;SDS011;70933;44.692;37.776;2024-01-27T05:57:37;3.38;;;2.60;;
75798;SDS011;70933;44.692;37.776;2024-01-27T05:58:39;2.83;;;1.27;;
75798;SDS011;70933;44.692;37.776;2024-01-27T05:59:41;2.83;;;2.50;;
75798;SDS011;70933;44.692;37.776;2024-01-27T06:00:43;3.08;;;1.60;;
75798;SDS011;70933;44.692;37.776;2024-01-27T06:01:48;2.55;;;1.05;;
75798;SDS011;70933;44.692;37.776;2024-01-27T06:02:49;2.50;;;1.00;;
75798;SDS011;70933;44.692;37.776;2024-01-27T06:03:51;3.45;;;2.63;;
75798;SDS011;70933;44.692;37.776;2024-01-27T06:04:53;2.97;;;2.60;;
75798;SDS011;70933;44.692;37.776;2024-01-27T06:05:55;3.60;;;2.47;;
75798;SDS011;70933;44.692;37.776;2024-01-27T06:06:56;3.30;;;2.65;;
75798;SDS011;70933;44.692;37.776;2024-01-27T06:07:58;2.38;;;0.90;;
75798;SDS011;70933;44.692;37.776;2024-01-27T06:09:00;1.98;;;0.88;;